Time;durP1;ratioP1;P1;durP2;ratioP2;P2;SDS_P1;SDS_P2;PMS_P1;PMS_P2;Temp;Humidity;BMP_temperature;BMP_pressure;BME280_temperature;BME280_humidity;BME280_pressure;Samples;Min_cycle;Max_cycle;Signal;HPM_P1;HPM_P2
2023/07/25 00:00:58;;;;;;;;;;;27.70;50.40;;;;;;5046193;28;82607;-54
2023/07/25 00:03:24;;;;;;;;;;;27.70;50.40;;;;;;5045656;28;82700;-56
2023/07/25 00:05:49;;;;;;;;;;;27.70;50.30;;;;;;5045801;28;82068;-54
2023/07/25 00:08:15;;;;;;;;;;;27.70;50.40;;;;;;5044995;28;82872;-59
2023/07/25 00:10:40;;;;;;;;;;;27.70;50.30;;;;;;5048035;28;83002;-57
2023/07/25 00:13:06;;;;;;;;;;;27.70;50.40;;;;;;5045053;28;82398;-55
2023/07/25 00:15:31;;;;;;;;;;;27.70;50.40;;;;;;5043764;28;83209;-56
2023/07/25 00:17:57;;;;;;;;;;;27.70;50.50;;;;;;5045619;28;82250;-54
2023/07/25 00:20:22;;;;;;;;;;;27.60;50.30;;;;;;5045001;28;82472;-56
2023/07/25 00:22:48;;;;;;;;;;;27.60;50.40;;;;;;5045343;27;83140;-50
2023/07/25 00:25:13;;;;;;;;;;;27.60;50.40;;;;;;5045969;28;81444;-57
2023/07/25 00:27:39;;;;;;;;;;;27.60;50.40;;;;;;5044454;28;81863;-58
2023/07/25 00:30:05;;;;;;;;;;;27.60;50.40;;;;;;5043343;28;82787;-52
2023/07/25 00:32:32;;;;;;;;;;;27.60;50.40;;;;;;5046123;28;83366;-54
2023/07/25 00:34:58;;;;;;;;;;;27.60;50.50;;;;;;5044686;28;83101;-56
2023/07/25 00:37:23;;;;;;;;;;;27.50;50.40;;;;;;5044964;28;82056;-57
2023/07/25 00:39:51;;;;;;;;;;;27.50;50.30;;;;;;5045170;28;82719;-56
2023/07/25 00:42:17;;;;;;;;;;;27.50;50.40;;;;;;5044580;28;83039;-52
2023/07/25 00:44:42;;;;;;;;;;;27.50;50.50;;;;;;5043127;28;82043;-57
2023/07/25 00:47:08;;;;;;;;;;;27.50;50.50;;;;;;5044870;28;82464;-58
2023/07/25 00:49:33;;;;;;;;;;;27.50;50.50;;;;;;5044905;28;82464;-52
2023/07/25 00:51:59;;;;;;;;;;;27.40;50.50;;;;;;5044847;28;82097;-54
2023/07/25 00:54:25;;;;;;;;;;;27.40;50.60;;;;;;5047302;28;82515;-57
2023/07/25 00:56:50;;;;;;;;;;;27.40;50.50;;;;;;5043651;28;83068;-59
2023/07/25 00:59:16;;;;;;;;;;;27.40;50.50;;;;;;5042760;28;83698;-50
2023/07/25 01:01:41;;;;;;;;;;;27.40;50.60;;;;;;5044519;28;83012;-57
2023/07/25 01:04:07;;;;;;;;;;;27.30;50.50;;;;;;5044410;28;82101;-56
2023/07/25 01:06:33;;;;;;;;;;;27.30;50.50;;;;;;5044827;28;83036;-58
2023/07/25 01:08:58;;;;;;;;;;;27.30;50.60;;;;;;5043924;28;84445;-58
2023/07/25 01:11:24;;;;;;;;;;;27.30;50.50;;;;;;5044074;28;82094;-57
2023/07/25 01:13:50;;;;;;;;;;;27.30;50.50;;;;;;5044768;28;82499;-57
2023/07/25 01:16:18;;;;;;;;;;;27.30;50.60;;;;;;5046522;28;81985;-54
2023/07/25 01:18:44;;;;;;;;;;;27.20;50.60;;;;;;5042480;28;84392;-54
2023/07/25 01:21:10;;;;;;;;;;;27.30;50.60;;;;;;5043515;28;84106;-54
2023/07/25 01:23:36;;;;;;;;;;;27.20;50.50;;;;;;5044589;28;82031;-59
2023/07/25 01:26:01;;;;;;;;;;;27.20;50.50;;;;;;5043812;28;82684;-56
2023/07/25 01:28:27;;;;;;;;;;;27.20;50.60;;;;;;5044315;28;81825;-57
2023/07/25 01:30:52;;;;;;;;;;;27.20;50.60;;;;;;5043675;28;82091;-58
2023/07/25 01:33:18;;;;;;;;;;;27.20;50.60;;;;;;5044380;28;82483;-57
2023/07/25 01:35:43;;;;;;;;;;;27.20;50.60;;;;;;5043973;28;82959;-56
2023/07/25 01:38:09;;;;;;;;;;;27.20;50.60;;;;;;5047524;28;81240;-56
2023/07/25 01:40:39;;;;;;;;;;;27.10;50.60;;;;;;5042534;28;82910;-54
2023/07/25 01:43:05;;;;;;;;;;;27.10;50.50;;;;;;5044292;27;82040;-57
2023/07/25 01:45:30;;;;;;;;;;;27.10;50.50;;;;;;5046123;28;82910;-54
2023/07/25 01:47:56;;;;;;;;;;;27.10;50.60;;;;;;5047664;28;82202;-59
2023/07/25 01:50:22;;;;;;;;;;;27.10;50.50;;;;;;5047917;28;82015;-58
2023/07/25 01:52:47;;;;;;;;;;;27.00;50.60;;;;;;5048098;28;82422;-58
2023/07/25 01:55:13;;;;;;;;;;;27.00;50.60;;;;;;5047562;28;83482;-58
2023/07/25 01:57:39;;;;;;;;;;;27.10;50.60;;;;;;5050376;28;82013;-57
2023/07/25 02:00:04;;;;;;;;;;;27.00;50.50;;;;;;5047025;28;83272;-57
2023/07/25 02:02:30;;;;;;;;;;;27.00;50.60;;;;;;5047789;28;81315;-59
2023/07/25 02:04:55;;;;;;;;;;;27.00;50.60;;;;;;5047803;28;81996;-56
2023/07/25 02:07:21;;;;;;;;;;;26.90;50.60;;;;;;5047421;28;83124;-58
2023/07/25 02:09:46;;;;;;;;;;;26.90;50.60;;;;;;5046729;28;83037;-59
2023/07/25 02:12:12;;;;;;;;;;;26.90;50.60;;;;;;5047352;28;83894;-58
2023/07/25 02:14:37;;;;;;;;;;;26.90;50.60;;;;;;5046234;27;83526;-59
2023/07/25 02:17:03;;;;;;;;;;;26.90;50.70;;;;;;5047527;28;82072;-55
2023/07/25 02:19:29;;;;;;;;;;;26.90;50.60;;;;;;5049447;28;82398;-56
2023/07/25 02:21:54;;;;;;;;;;;26.90;50.80;;;;;;5047493;28;82097;-55
2023/07/25 02:24:19;;;;;;;;;;;26.90;50.70;;;;;;5047374;28;82089;-56
2023/07/25 02:26:45;;;;;;;;;;;26.80;50.60;;;;;;5047493;28;83012;-57
2023/07/25 02:29:10;;;;;;;;;;;26.80;50.60;;;;;;5047631;28;82123;-57
2023/07/25 02:31:36;;;;;;;;;;;26.80;50.60;;;;;;5046943;28;82467;-60
2023/07/25 02:34:01;;;;;;;;;;;26.80;50.70;;;;;;5046177;28;84082;-53
2023/07/25 02:36:27;;;;;;;;;;;26.80;50.80;;;;;;5046969;27;82597;-57
2023/07/25 02:38:52;;;;;;;;;;;26.80;50.70;;;;;;5046989;28;82541;-57
2023/07/25 02:41:18;;;;;;;;;;;26.80;50.70;;;;;;5049323;28;82228;-54
2023/07/25 02:43:44;;;;;;;;;;;26.80;50.80;;;;;;5045475;28;84207;-55
2023/07/25 02:46:10;;;;;;;;;;;26.70;50.80;;;;;;5045948;28;83235;-53
2023/07/25 02:48:35;;;;;;;;;;;26.70;50.80;;;;;;5046656;28;82096;-52
2023/07/25 02:51:00;;;;;;;;;;;26.70;50.80;;;;;;5047279;27;82488;-58
2023/07/25 02:53:26;;;;;;;;;;;26.70;50.70;;;;;;5046522;27;82698;-55
2023/07/25 02:55:52;;;;;;;;;;;26.70;50.80;;;;;;5046576;27;82412;-52
2023/07/25 02:58:17;;;;;;;;;;;26.70;50.70;;;;;;5044746;28;85569;-55
2023/07/25 03:00:43;;;;;;;;;;;26.60;50.80;;;;;;5045037;28;82097;-55
2023/07/25 03:03:08;;;;;;;;;;;26.60;50.70;;;;;;5049601;28;82195;-56
2023/07/25 03:05:34;;;;;;;;;;;26.60;50.70;;;;;;5046565;28;83071;-54
2023/07/25 03:07:59;;;;;;;;;;;26.60;50.90;;;;;;5046713;28;82025;-59
2023/07/25 03:10:25;;;;;;;;;;;26.60;50.80;;;;;;5046724;28;82439;-58
2023/07/25 03:12:52;;;;;;;;;;;26.60;50.80;;;;;;5046329;28;83629;-53
2023/07/25 03:15:18;;;;;;;;;;;26.60;50.80;;;;;;5045139;28;81518;-57
2023/07/25 03:17:43;;;;;;;;;;;26.50;50.80;;;;;;5046763;28;82302;-56
2023/07/25 03:20:09;;;;;;;;;;;26.50;50.80;;;;;;5045819;27;83136;-59
2023/07/25 03:22:34;;;;;;;;;;;26.50;51.50;;;;;;5045738;27;83025;-59
2023/07/25 03:25:00;;;;;;;;;;;26.50;50.90;;;;;;5048945;28;82585;-58
2023/07/25 03:27:25;;;;;;;;;;;26.50;50.80;;;;;;5046523;28;81952;-55
2023/07/25 03:29:51;;;;;;;;;;;26.50;50.90;;;;;;5046377;28;81947;-55
2023/07/25 03:32:16;;;;;;;;;;;26.40;50.80;;;;;;5044499;28;83035;-58
2023/07/25 03:34:42;;;;;;;;;;;26.50;50.90;;;;;;5046409;28;82353;-55
2023/07/25 03:37:07;;;;;;;;;;;26.50;50.90;;;;;;5046331;28;82460;-58
2023/07/25 03:39:33;;;;;;;;;;;26.40;50.80;;;;;;5046653;28;82208;-57
2023/07/25 03:41:59;;;;;;;;;;;26.40;50.70;;;;;;5045959;28;82090;-55
2023/07/25 03:44:24;;;;;;;;;;;26.40;50.90;;;;;;5048467;27;83402;-55
2023/07/25 03:46:50;;;;;;;;;;;26.40;50.90;;;;;;5044604;28;83137;-58
2023/07/25 03:49:15;;;;;;;;;;;26.40;50.80;;;;;;5046092;28;83323;-55
2023/07/25 03:51:41;;;;;;;;;;;26.40;51.00;;;;;;5045969;28;83140;-57
2023/07/25 03:54:06;;;;;;;;;;;26.40;50.90;;;;;;5045517;28;82524;-59
2023/07/25 03:56:32;;;;;;;;;;;26.30;50.80;;;;;;5046115;27;82493;-57
2023/07/25 03:59:01;;;;;;;;;;;26.30;50.90;;;;;;5045631;28;82421;-56
2023/07/25 04:01:27;;;;;;;;;;;26.30;50.90;;;;;;5044955;28;82097;-56
2023/07/25 04:03:52;;;;;;;;;;;26.30;50.90;;;;;;5046326;28;82813;-57
2023/07/25 04:06:18;;;;;;;;;;;26.30;50.90;;;;;;5047663;28;83139;-52
2023/07/25 04:08:44;;;;;;;;;;;26.30;50.90;;;;;;5045858;28;82562;-55
2023/07/25 04:11:09;;;;;;;;;;;26.30;51.00;;;;;;5040329;28;84128;-59
2023/07/25 04:13:35;;;;;;;;;;;26.30;50.90;;;;;;5045497;28;82139;-57
2023/07/25 04:16:00;;;;;;;;;;;26.20;50.90;;;;;;5043930;28;82512;-53
2023/07/25 04:18:26;;;;;;;;;;;26.20;51.00;;;;;;5045138;28;83115;-59
2023/07/25 04:20:51;;;;;;;;;;;26.30;51.00;;;;;;5045281;28;82023;-56
2023/07/25 04:23:17;;;;;;;;;;;26.20;51.00;;;;;;5045548;28;82908;-54
2023/07/25 04:25:42;;;;;;;;;;;26.20;51.00;;;;;;5045215;28;82841;-54
2023/07/25 04:28:08;;;;;;;;;;;26.20;51.00;;;;;;5048964;28;81900;-59
2023/07/25 04:30:34;;;;;;;;;;;26.20;51.00;;;;;;5044710;28;83323;-55
2023/07/25 04:32:59;;;;;;;;;;;26.20;51.10;;;;;;5045056;28;82258;-57
2023/07/25 04:35:25;;;;;;;;;;;26.20;51.10;;;;;;5040673;28;82811;-55
2023/07/25 04:37:50;;;;;;;;;;;26.20;51.70;;;;;;5045210;28;83187;-57
2023/07/25 04:40:16;;;;;;;;;;;26.20;51.10;;;;;;5045326;28;82199;-57
2023/07/25 04:42:42;;;;;;;;;;;26.10;51.00;;;;;;5045130;28;82321;-55
2023/07/25 04:45:07;;;;;;;;;;;26.10;51.10;;;;;;5045025;28;83499;-54
2023/07/25 04:47:33;;;;;;;;;;;26.10;51.10;;;;;;5044466;27;82350;-52
2023/07/25 04:49:58;;;;;;;;;;;26.10;51.10;;;;;;5047618;28;81991;-52
2023/07/25 04:52:24;;;;;;;;;;;26.10;51.10;;;;;;5045706;28;81525;-53
2023/07/25 04:54:50;;;;;;;;;;;26.10;51.10;;;;;;5045363;28;82808;-58
2023/07/25 04:57:16;;;;;;;;;;;26.10;51.10;;;;;;5044394;28;84269;-59
2023/07/25 04:59:41;;;;;;;;;;;26.10;51.20;;;;;;5044436;28;82965;-55
2023/07/25 05:02:07;;;;;;;;;;;26.10;51.10;;;;;;5044447;28;83677;-51
2023/07/25 05:04:32;;;;;;;;;;;26.10;51.10;;;;;;5044845;28;83213;-57
2023/07/25 05:06:58;;;;;;;;;;;26.10;51.20;;;;;;5044555;28;82178;-57
2023/07/25 05:09:23;;;;;;;;;;;26.10;51.20;;;;;;5045108;28;82472;-54
2023/07/25 05:11:51;;;;;;;;;;;26.00;51.10;;;;;;5047478;28;82533;-54
2023/07/25 05:14:17;;;;;;;;;;;26.00;51.10;;;;;;5045152;28;82498;-57
2023/07/25 05:16:43;;;;;;;;;;;26.10;51.30;;;;;;5044675;28;81408;-56
2023/07/25 05:19:08;;;;;;;;;;;26.10;51.30;;;;;;5045966;27;82275;-56
2023/07/25 05:21:34;;;;;;;;;;;26.00;51.20;;;;;;5048110;28;83785;-55
2023/07/25 05:23:59;;;;;;;;;;;26.00;51.30;;;;;;5047416;28;84562;-57
2023/07/25 05:26:25;;;;;;;;;;;26.00;51.20;;;;;;5048356;28;82158;-55
2023/07/25 05:28:50;;;;;;;;;;;26.10;51.30;;;;;;5048566;28;82242;-53
2023/07/25 05:31:16;;;;;;;;;;;26.10;51.40;;;;;;5047380;28;83745;-59
2023/07/25 05:33:41;;;;;;;;;;;26.10;51.30;;;;;;5051011;28;82211;-58
2023/07/25 05:36:07;;;;;;;;;;;26.10;51.40;;;;;;5048033;28;83002;-57
2023/07/25 05:38:32;;;;;;;;;;;26.10;51.40;;;;;;5048356;28;82056;-52
2023/07/25 05:40:58;;;;;;;;;;;26.10;51.40;;;;;;5048652;28;82438;-53
2023/07/25 05:43:23;;;;;;;;;;;26.10;51.40;;;;;;5047871;28;82945;-54
2023/07/25 05:45:49;;;;;;;;;;;26.10;51.40;;;;;;5048035;28;82038;-56
2023/07/25 05:48:14;;;;;;;;;;;26.10;51.40;;;;;;5045694;28;83064;-57
2023/07/25 05:50:40;;;;;;;;;;;26.10;51.40;;;;;;5043394;28;82978;-55
2023/07/25 05:53:05;;;;;;;;;;;26.10;51.40;;;;;;5050535;28;82511;-50
2023/07/25 05:55:31;;;;;;;;;;;26.10;51.40;;;;;;5047703;28;82459;-54
2023/07/25 05:57:56;;;;;;;;;;;26.10;51.40;;;;;;5047827;28;82184;-56
2023/07/25 06:00:22;;;;;;;;;;;26.10;51.40;;;;;;5047955;28;82397;-56
2023/07/25 06:02:48;;;;;;;;;;;26.10;51.40;;;;;;5045782;28;83314;-56
2023/07/25 06:05:13;;;;;;;;;;;26.10;51.40;;;;;;5048150;28;81678;-52
2023/07/25 06:07:39;;;;;;;;;;;26.10;51.50;;;;;;5047798;28;82360;-56
2023/07/25 06:10:05;;;;;;;;;;;26.10;51.50;;;;;;5047350;28;83711;-53
2023/07/25 06:12:31;;;;;;;;;;;26.10;51.50;;;;;;5046482;28;83036;-56
2023/07/25 06:14:56;;;;;;;;;;;26.10;51.60;;;;;;5049725;28;84611;-54
2023/07/25 06:17:22;;;;;;;;;;;26.00;51.50;;;;;;5046071;28;82108;-57
2023/07/25 06:19:47;;;;;;;;;;;26.10;51.70;;;;;;5047147;28;82306;-55
2023/07/25 06:22:14;;;;;;;;;;;26.10;51.60;;;;;;5047184;28;81985;-57
2023/07/25 06:24:39;;;;;;;;;;;26.10;51.60;;;;;;5046909;27;82089;-56
2023/07/25 06:27:05;;;;;;;;;;;26.10;51.60;;;;;;5047130;28;82319;-58
2023/07/25 06:29:31;;;;;;;;;;;26.10;51.60;;;;;;5046987;27;82260;-59
2023/07/25 06:31:57;;;;;;;;;;;26.10;51.70;;;;;;5046381;28;82786;-58
2023/07/25 06:34:22;;;;;;;;;;;26.00;51.60;;;;;;5047199;28;82797;-57
2023/07/25 06:36:48;;;;;;;;;;;26.10;51.70;;;;;;5049178;28;84252;-56
2023/07/25 06:39:14;;;;;;;;;;;26.10;51.70;;;;;;5047107;28;83575;-53
2023/07/25 06:41:39;;;;;;;;;;;26.10;51.70;;;;;;5046489;28;82975;-54
2023/07/25 06:44:05;;;;;;;;;;;26.10;51.70;;;;;;5046671;28;82435;-57
2023/07/25 06:46:30;;;;;;;;;;;26.10;51.70;;;;;;5046411;28;82970;-56
2023/07/25 06:48:56;;;;;;;;;;;26.10;51.70;;;;;;5045433;28;83454;-57
2023/07/25 06:51:21;;;;;;;;;;;26.10;51.60;;;;;;5046626;28;82002;-59
2023/07/25 06:53:47;;;;;;;;;;;26.20;51.70;;;;;;5047065;28;83134;-56
2023/07/25 06:56:12;;;;;;;;;;;26.10;51.70;;;;;;5046711;28;83108;-56
2023/07/25 06:58:38;;;;;;;;;;;26.10;51.70;;;;;;5049880;28;82208;-58
2023/07/25 07:01:03;;;;;;;;;;;26.10;51.70;;;;;;5046098;28;84089;-54
2023/07/25 07:03:29;;;;;;;;;;;26.10;51.70;;;;;;5045966;28;82040;-58
2023/07/25 07:05:55;;;;;;;;;;;26.20;51.80;;;;;;5046581;28;83553;-55
2023/07/25 07:08:21;;;;;;;;;;;26.10;51.70;;;;;;5046578;28;83063;-56
2023/07/25 07:10:51;;;;;;;;;;;26.10;51.70;;;;;;5046349;28;82236;-56
2023/07/25 07:13:16;;;;;;;;;;;26.10;51.70;;;;;;5046809;28;81943;-56
2023/07/25 07:15:44;;;;;;;;;;;26.10;51.80;;;;;;5046299;27;83204;-57
2023/07/25 07:18:09;;;;;;;;;;;26.20;51.80;;;;;;5046474;28;81407;-57
2023/07/25 07:20:35;;;;;;;;;;;26.10;51.80;;;;;;5048889;28;81971;-57
2023/07/25 07:23:00;;;;;;;;;;;26.20;51.80;;;;;;5046583;28;82093;-55
2023/07/25 07:25:26;;;;;;;;;;;26.20;51.90;;;;;;5045917;28;83894;-53
2023/07/25 07:27:52;;;;;;;;;;;26.20;51.90;;;;;;5046388;28;83146;-56
2023/07/25 07:30:17;;;;;;;;;;;26.20;51.80;;;;;;5046025;28;82105;-56
2023/07/25 07:32:43;;;;;;;;;;;26.20;51.80;;;;;;5045447;28;84180;-53
2023/07/25 07:35:08;;;;;;;;;;;26.20;51.90;;;;;;5045982;28;84493;-56
2023/07/25 07:37:34;;;;;;;;;;;26.20;51.90;;;;;;5046123;28;82021;-58
2023/07/25 07:39:59;;;;;;;;;;;26.20;51.90;;;;;;5046290;28;82318;-56
2023/07/25 07:42:25;;;;;;;;;;;26.10;51.80;;;;;;5048006;27;83372;-55
2023/07/25 07:44:50;;;;;;;;;;;26.20;51.90;;;;;;5046108;28;82025;-50
2023/07/25 07:47:16;;;;;;;;;;;26.20;51.90;;;;;;5045843;28;82942;-55
2023/07/25 07:49:41;;;;;;;;;;;26.20;52.00;;;;;;5044267;28;82905;-58
2023/07/25 07:52:07;;;;;;;;;;;26.20;51.90;;;;;;5046140;28;83412;-56
2023/07/25 07:54:33;;;;;;;;;;;26.10;51.90;;;;;;5045612;28;83336;-57
2023/07/25 07:56:58;;;;;;;;;;;26.20;52.00;;;;;;5045233;27;82677;-59
2023/07/25 07:59:24;;;;;;;;;;;26.20;51.90;;;;;;5045763;28;82487;-59
2023/07/25 08:01:49;;;;;;;;;;;26.20;51.90;;;;;;5048592;28;82990;-54
2023/07/25 08:04:15;;;;;;;;;;;26.20;52.00;;;;;;5044888;28;82598;-55
2023/07/25 08:06:40;;;;;;;;;;;26.20;52.00;;;;;;5046400;28;82348;-52
2023/07/25 08:09:08;;;;;;;;;;;26.20;52.00;;;;;;5045420;28;82084;-59
2023/07/25 08:11:33;;;;;;;;;;;26.20;52.00;;;;;;5045508;28;82974;-55
2023/07/25 08:13:59;;;;;;;;;;;26.20;52.00;;;;;;5044596;27;83949;-56
2023/07/25 08:16:24;;;;;;;;;;;26.20;52.00;;;;;;5045677;28;82105;-55
2023/07/25 08:18:50;;;;;;;;;;;26.20;52.00;;;;;;5044418;28;82087;-57
2023/07/25 08:21:15;;;;;;;;;;;26.30;52.10;;;;;;5045509;28;83213;-55
2023/07/25 08:23:41;;;;;;;;;;;26.20;52.00;;;;;;5048566;28;81869;-56
2023/07/25 08:26:06;;;;;;;;;;;26.20;51.90;;;;;;5045230;28;84477;-55
2023/07/25 08:28:32;;;;;;;;;;;26.30;52.00;;;;;;5045733;28;81863;-56
2023/07/25 08:30:58;;;;;;;;;;;26.30;52.00;;;;;;5046134;28;82274;-57
2023/07/25 08:33:25;;;;;;;;;;;26.30;51.90;;;;;;5044448;28;84426;-58
2023/07/25 08:35:51;;;;;;;;;;;26.30;51.90;;;;;;5045338;27;81972;-56
2023/07/25 08:38:17;;;;;;;;;;;26.30;51.90;;;;;;5044960;28;83051;-54
2023/07/25 08:40:43;;;;;;;;;;;26.30;51.90;;;;;;5045305;28;83103;-58
2023/07/25 08:43:09;;;;;;;;;;;26.30;51.90;;;;;;5045037;28;82184;-59
2023/07/25 08:45:35;;;;;;;;;;;26.40;51.90;;;;;;5047547;28;84340;-54
2023/07/25 08:48:03;;;;;;;;;;;26.40;51.90;;;;;;5044861;28;82058;-55
2023/07/25 08:50:29;;;;;;;;;;;26.40;52.00;;;;;;5044997;28;83154;-55
2023/07/25 08:52:56;;;;;;;;;;;26.40;51.90;;;;;;5042133;27;87940;-53
2023/07/25 08:55:21;;;;;;;;;;;26.40;52.00;;;;;;5041741;28;86720;-56
2023/07/25 08:57:48;;;;;;;;;;;26.40;52.00;;;;;;5045187;28;86999;-54
2023/07/25 09:00:14;;;;;;;;;;;26.40;51.90;;;;;;5043672;28;90989;-54
2023/07/25 09:02:40;;;;;;;;;;;26.40;52.00;;;;;;5044115;28;88159;-58
2023/07/25 09:05:05;;;;;;;;;;;26.40;51.90;;;;;;5042493;28;91368;-56
2023/07/25 09:07:31;;;;;;;;;;;26.40;52.00;;;;;;5047703;28;89137;-53
2023/07/25 09:09:57;;;;;;;;;;;26.50;52.00;;;;;;5045165;28;87348;-55
2023/07/25 09:12:22;;;;;;;;;;;26.50;52.00;;;;;;5044912;28;88094;-59
2023/07/25 09:14:48;;;;;;;;;;;26.50;51.90;;;;;;5045085;28;87147;-54
2023/07/25 09:17:13;;;;;;;;;;;26.50;51.90;;;;;;5044539;28;87606;-53
2023/07/25 09:19:41;;;;;;;;;;;26.50;51.90;;;;;;5042703;28;87389;-58
2023/07/25 09:22:24;;;;;;;;;;;26.50;52.10;;;;;;5040585;28;87082;-56
2023/07/25 09:24:49;;;;;;;;;;;26.50;52.00;;;;;;5043308;28;87548;-55
2023/07/25 09:27:18;;;;;;;;;;;26.50;52.00;;;;;;5043734;28;88148;-55
2023/07/25 09:29:47;;;;;;;;;;;26.60;52.00;;;;;;5047442;28;87017;-56
2023/07/25 09:32:21;;;;;;;;;;;26.60;52.00;;;;;;5044152;28;88032;-56
2023/07/25 09:34:54;;;;;;;;;;;26.60;52.00;;;;;;5043622;28;87055;-56
2023/07/25 09:37:19;;;;;;;;;;;26.60;52.10;;;;;;5043810;27;89246;-57
2023/07/25 09:39:45;;;;;;;;;;;26.60;52.00;;;;;;5043939;28;87334;-57
2023/07/25 09:42:10;;;;;;;;;;;26.60;52.10;;;;;;5044333;28;87134;-55
2023/07/25 09:44:36;;;;;;;;;;;26.70;52.30;;;;;;5044893;28;87461;-52
2023/07/25 09:47:01;;;;;;;;;;;26.70;52.10;;;;;;5043630;28;88039;-55
2023/07/25 09:49:27;;;;;;;;;;;26.70;52.30;;;;;;5042763;28;87099;-57
2023/07/25 09:52:04;;;;;;;;;;;26.70;52.10;;;;;;5046619;28;88335;-58
2023/07/25 09:54:29;;;;;;;;;;;26.70;52.00;;;;;;5044427;28;87102;-58
2023/07/25 09:56:55;;;;;;;;;;;26.70;52.00;;;;;;5044313;28;86979;-59
2023/07/25 09:59:21;;;;;;;;;;;26.70;52.20;;;;;;5043974;28;88265;-55
2023/07/25 10:01:46;;;;;;;;;;;26.80;52.20;;;;;;5044460;28;87627;-56
2023/07/25 10:04:14;;;;;;;;;;;26.80;52.10;;;;;;5043327;27;87416;-56
2023/07/25 10:06:40;;;;;;;;;;;26.80;52.20;;;;;;5040034;28;87970;-59
2023/07/25 10:09:06;;;;;;;;;;;26.80;52.20;;;;;;5044970;28;86444;-55
2023/07/25 10:11:32;;;;;;;;;;;26.90;52.00;;;;;;5047069;28;87044;-52
2023/07/25 10:13:57;;;;;;;;;;;26.90;52.10;;;;;;5044378;28;87106;-57
2023/07/25 10:16:23;;;;;;;;;;;26.90;52.00;;;;;;5043575;28;88833;-58
2023/07/25 10:18:53;;;;;;;;;;;26.90;52.10;;;;;;5042109;28;87926;-56
2023/07/25 10:21:18;;;;;;;;;;;26.90;52.10;;;;;;5043788;28;87059;-55
2023/07/25 10:23:51;;;;;;;;;;;26.90;52.00;;;;;;5043688;28;88326;-57
2023/07/25 10:26:18;;;;;;;;;;;26.90;52.10;;;;;;5043961;28;87250;-54
2023/07/25 10:28:44;;;;;;;;;;;26.90;51.90;;;;;;5043919;28;87110;-53
2023/07/25 10:31:22;;;;;;;;;;;27.00;52.10;;;;;;5044277;28;87471;-58
2023/07/25 10:33:54;;;;;;;;;;;27.00;52.10;;;;;;5046074;28;89103;-55
2023/07/25 10:36:22;;;;;;;;;;;27.00;52.10;;;;;;5039932;28;86873;-57
2023/07/25 10:38:48;;;;;;;;;;;27.00;52.00;;;;;;5043261;28;89397;-58
2023/07/25 10:41:15;;;;;;;;;;;27.10;52.10;;;;;;5043257;28;88017;-55
2023/07/25 10:43:44;;;;;;;;;;;27.10;52.10;;;;;;5043508;28;89714;-54
2023/07/25 10:46:11;;;;;;;;;;;27.10;52.10;;;;;;5043169;28;88071;-53
2023/07/25 10:48:43;;;;;;;;;;;27.10;52.00;;;;;;5043676;28;87098;-59
2023/07/25 10:51:09;;;;;;;;;;;27.20;52.80;;;;;;5043257;28;87214;-55
2023/07/25 10:53:34;;;;;;;;;;;27.20;52.10;;;;;;5041935;28;91108;-57
2023/07/25 10:56:03;;;;;;;;;;;27.20;52.10;;;;;;5046645;27;87419;-57
2023/07/25 10:58:29;;;;;;;;;;;27.20;52.10;;;;;;5044017;28;86540;-54
2023/07/25 11:00:54;;;;;;;;;;;27.30;52.10;;;;;;5043385;28;87149;-56
2023/07/25 11:03:27;;;;;;;;;;;27.30;52.10;;;;;;5043448;28;87417;-55
2023/07/25 11:06:12;;;;;;;;;;;27.30;52.10;;;;;;5041314;28;88938;-57
2023/07/25 11:08:41;;;;;;;;;;;27.30;52.10;;;;;;5040403;28;87012;-56
2023/07/25 11:11:08;;;;;;;;;;;27.30;52.00;;;;;;5043363;28;89026;-54
2023/07/25 11:13:34;;;;;;;;;;;27.40;52.10;;;;;;5043015;28;88123;-56
2023/07/25 11:16:03;;;;;;;;;;;27.40;52.10;;;;;;5043528;27;87030;-56
2023/07/25 11:18:29;;;;;;;;;;;27.40;52.10;;;;;;5042045;28;88921;-59
2023/07/25 11:20:59;;;;;;;;;;;27.40;52.00;;;;;;5042381;28;87017;-56
2023/07/25 11:23:24;;;;;;;;;;;27.40;52.00;;;;;;5039933;28;87663;-56
2023/07/25 11:25:57;;;;;;;;;;;27.40;52.00;;;;;;5042859;28;87249;-56
2023/07/25 11:28:23;;;;;;;;;;;27.50;52.00;;;;;;5039119;28;87415;-59
2023/07/25 11:30:48;;;;;;;;;;;27.50;52.00;;;;;;5038278;28;90475;-57
2023/07/25 11:33:14;;;;;;;;;;;27.50;52.70;;;;;;5042970;28;88140;-53
2023/07/25 11:35:39;;;;;;;;;;;27.50;52.00;;;;;;5041381;28;87147;-55
2023/07/25 11:38:05;;;;;;;;;;;27.60;52.00;;;;;;5043255;28;87568;-55
2023/07/25 11:40:31;;;;;;;;;;;27.60;52.00;;;;;;5045447;28;87269;-58
2023/07/25 11:42:57;;;;;;;;;;;27.70;52.00;;;;;;5042438;28;88901;-58
2023/07/25 11:45:22;;;;;;;;;;;27.70;51.90;;;;;;5042581;28;88113;-57
2023/07/25 11:47:50;;;;;;;;;;;27.70;51.90;;;;;;5043334;28;86343;-58
2023/07/25 11:50:16;;;;;;;;;;;27.70;51.90;;;;;;5042090;28;87026;-57
2023/07/25 11:52:43;;;;;;;;;;;27.70;51.90;;;;;;5042603;28;87825;-57
2023/07/25 11:55:09;;;;;;;;;;;27.70;51.80;;;;;;5042007;28;88052;-58
2023/07/25 11:57:40;;;;;;;;;;;27.80;51.90;;;;;;5042908;28;88372;-58
2023/07/25 12:00:06;;;;;;;;;;;27.80;51.80;;;;;;5038684;28;89951;-56
2023/07/25 12:02:38;;;;;;;;;;;27.80;51.70;;;;;;5045496;28;87086;-59
2023/07/25 12:05:04;;;;;;;;;;;27.80;51.80;;;;;;5037114;28;88371;-58
2023/07/25 12:07:49;;;;;;;;;;;27.90;51.80;;;;;;5042575;28;87145;-58
2023/07/25 12:10:24;;;;;;;;;;;27.90;51.80;;;;;;5042642;28;87459;-59
2023/07/25 12:12:49;;;;;;;;;;;27.90;51.80;;;;;;5041348;28;90799;-55
2023/07/25 12:15:15;;;;;;;;;;;27.90;51.70;;;;;;5042639;28;87084;-53
2023/07/25 12:17:42;;;;;;;;;;;27.90;51.70;;;;;;5042083;28;88790;-57
2023/07/25 12:20:14;;;;;;;;;;;27.90;51.70;;;;;;5039027;28;91884;-57
2023/07/25 12:22:40;;;;;;;;;;;28.00;51.70;;;;;;5045167;28;87145;-50
2023/07/25 12:25:05;;;;;;;;;;;28.00;51.70;;;;;;5041478;28;88087;-56
2023/07/25 12:27:31;;;;;;;;;;;28.00;51.70;;;;;;5041121;28;87055;-54
2023/07/25 12:29:56;;;;;;;;;;;28.00;51.60;;;;;;5042148;28;87433;-56
2023/07/25 12:32:22;;;;;;;;;;;28.10;51.70;;;;;;5042016;28;88178;-55
2023/07/25 12:34:48;;;;;;;;;;;28.10;51.70;;;;;;5041490;27;87652;-57
2023/07/25 12:37:14;;;;;;;;;;;28.10;51.60;;;;;;5042825;28;87420;-56
2023/07/25 12:39:39;;;;;;;;;;;28.20;51.60;;;;;;5042065;28;87665;-57
2023/07/25 12:42:05;;;;;;;;;;;28.20;51.60;;;;;;5042236;28;87173;-54
2023/07/25 12:44:30;;;;;;;;;;;28.20;51.60;;;;;;5044203;28;88014;-58
2023/07/25 12:46:56;;;;;;;;;;;28.20;51.50;;;;;;5042166;28;87520;-56
2023/07/25 12:49:21;;;;;;;;;;;28.20;51.60;;;;;;5041839;28;87608;-57
2023/07/25 12:51:47;;;;;;;;;;;28.30;51.60;;;;;;5039724;28;89232;-55
2023/07/25 12:54:12;;;;;;;;;;;28.30;51.60;;;;;;5041879;28;87361;-51
2023/07/25 12:56:38;;;;;;;;;;;28.30;51.60;;;;;;5042235;28;87364;-56
2023/07/25 12:59:03;;;;;;;;;;;28.30;51.50;;;;;;5041641;28;87883;-57
2023/07/25 13:01:29;;;;;;;;;;;28.30;51.40;;;;;;5042624;28;86340;-58
2023/07/25 13:03:54;;;;;;;;;;;28.40;51.60;;;;;;5041883;28;87043;-55
2023/07/25 13:06:20;;;;;;;;;;;28.40;51.50;;;;;;5043699;28;88105;-57
2023/07/25 13:08:45;;;;;;;;;;;28.50;51.50;;;;;;5041442;28;88203;-59
2023/07/25 13:11:11;;;;;;;;;;;28.50;51.50;;;;;;5041441;28;87064;-56
2023/07/25 13:13:37;;;;;;;;;;;28.50;51.40;;;;;;5041916;28;87157;-59
2023/07/25 13:16:03;;;;;;;;;;;28.50;51.50;;;;;;5041853;28;87368;-57
2023/07/25 13:18:29;;;;;;;;;;;28.50;51.40;;;;;;5040963;28;89298;-59
2023/07/25 13:20:54;;;;;;;;;;;28.60;51.40;;;;;;5040632;28;88391;-57
2023/07/25 13:23:20;;;;;;;;;;;28.60;51.30;;;;;;5041537;28;88601;-56
2023/07/25 13:25:46;;;;;;;;;;;28.60;51.30;;;;;;5041935;28;87296;-56
2023/07/25 13:28:12;;;;;;;;;;;28.70;51.40;;;;;;5044363;28;87125;-54
2023/07/25 13:30:37;;;;;;;;;;;28.80;51.50;;;;;;5037339;28;87329;-55
2023/07/25 13:33:05;;;;;;;;;;;28.70;51.20;;;;;;5040857;28;88065;-58
2023/07/25 13:35:31;;;;;;;;;;;28.80;51.40;;;;;;5040480;28;89668;-55
2023/07/25 13:37:56;;;;;;;;;;;28.70;51.40;;;;;;5041009;27;87835;-53
2023/07/25 13:40:22;;;;;;;;;;;28.80;51.50;;;;;;5043127;27;87019;-53
2023/07/25 13:42:47;;;;;;;;;;;28.80;51.50;;;;;;5045094;28;87355;-58
2023/07/25 13:45:13;;;;;;;;;;;28.70;51.50;;;;;;5044457;28;87182;-55
2023/07/25 13:47:38;;;;;;;;;;;28.70;51.80;;;;;;5044755;28;87131;-55
2023/07/25 13:50:04;;;;;;;;;;;28.80;51.50;;;;;;5047828;28;87150;-55
2023/07/25 13:52:30;;;;;;;;;;;28.80;51.50;;;;;;5042848;28;87113;-56
2023/07/25 13:54:56;;;;;;;;;;;28.80;51.50;;;;;;5044606;28;87488;-56
2023/07/25 13:57:22;;;;;;;;;;;28.80;51.50;;;;;;5039399;28;90492;-58
2023/07/25 13:59:47;;;;;;;;;;;28.80;52.10;;;;;;5044613;28;87143;-57
2023/07/25 14:02:13;;;;;;;;;;;28.80;51.60;;;;;;5044191;28;87390;-58
2023/07/25 14:04:39;;;;;;;;;;;28.80;51.50;;;;;;5044202;28;87957;-57
2023/07/25 14:07:05;;;;;;;;;;;28.90;51.50;;;;;;5041953;27;86994;-55
2023/07/25 14:09:30;;;;;;;;;;;28.90;51.50;;;;;;5046676;28;87474;-55